DAAP

Illizi Takhamalt Airport

Illizi, Algeria
TAF DAAP 242300Z 2500/2509 28012KT 6000 FEW033 SCT046 PROB40 TEMPO 2500/2505 28015G25KT 3000 DRSA FEW033TCU PROB30 TEMPO 2500/2503 -TSRA FEW040TCU
Issued Valid From Valid To
Sep-24 @ 23:00 UTC
(2 hours ago)
Sep-25 @ 00:00 UTC
(an hour ago)
Sep-25 @ 09:00 UTC
(in 8 hours)
Sep-25 @ 00:00 to Sep-25 @ 09:00
TAF DAAP 242300Z 2500/2509 28012KT 6000 FEW033 SCT046
Wind Visibility Clouds
280° at 12 knots 6,003 meters
  • Few at 3,300' AGL
  • Scattered at 4,600' AGL
Temporary  (Probability 30%) Sep-25 @ 00:00 to Sep-25 @ 03:00
PROB30 TEMPO 2500/2503 -TSRA FEW040TCU
Clouds Conditions
  • Few at 4,000' AGL
  • Light Thunderstorm
  • Light Rain
Temporary  (Probability 40%) Sep-25 @ 00:00 to Sep-25 @ 05:00
PROB40 TEMPO 2500/2505 28015G25KT 3000 DRSA FEW033TCU
Wind Visibility Clouds Conditions
280° at 15 knots
 Gusting to 25 knots
2,993 meters
  • Few at 3,300' AGL
  • Low drifting
  • Sand
TAF DAAP 242300Z 2500/2509 28012KT 6000 FEW033 SCT046 PROB40 TEMPO 2500/2505 28015G25KT 3000 DRSA FEW033TCU PROB30 TEMPO 2500/2503 -TSRA FEW040TCU
Issued Sep-24 @ 23:00 UTC
(2 hours ago)
Valid From Sep-25 @ 00:00 UTC
(an hour ago)
Valid To Sep-25 @ 09:00 UTC
(in 8 hours)
Sep-25 @ 00:00 - Sep-25 @ 09:00
Wind Visibility
280° at 12 knots 6,003 meters
Clouds
  • Few at 3,300' AGL
  • Scattered at 4,600' AGL
Probability 30% Temporary Sep-25 @ 00:00 - Sep-25 @ 03:00
Clouds
  • Few at 4,000' AGL
Conditions
  • Light Thunderstorm
  • Light Rain
Probability 40% Temporary Sep-25 @ 00:00 - Sep-25 @ 05:00
Wind Visibility
280° at 15 knots
 Gusting to 25 knots
2,993 meters
Clouds
  • Few at 3,300' AGL
Conditions
  • Low drifting
  • Sand